Pagina principale
METAR-TAF:

METAR-TAF

Aeroporti :

Aeroporto di Bologna-Borgo Panigale

Bologna, Italia

latitudine: 44-32N, longitudine: 011-18E, altezza: 36 m

Osservazione

Il bollettino è stato emesso 25 minuti fa, alle 15:50 UTC
Vento 4 kt da direzioni variabili
Temperature 23°C
Umidità 47%
Pressione 1014 hPa
Visibilità 10 km o più
Nubi sparse ad un'altezza di 6000 ft

METAR: LIPE 131550Z VRB04KT 9999 SCT060 23/11 Q1014

Ora: 18:15 (16:15 UTC)

Previsione

Il bollettino è stato emesso 5 ore e 15 minuti fa, alle 11:00 UTC
Previsione valida dal 13 alle 12 UTC al 14 alle 12 UTC
Vento 5 kt da direzioni variabili
Visibilità 10 km o più
Nubi sparse ad un'altezza di 3000 ft
Temporaneamente
dal 13 alle 12 UTC al 13 alle 15 UTC
temporale, pioggia,

TAF: LIPE 131100Z 1312/1412 VRB05KT 9999 SCT030 TEMPO 1312/1315 TSRA

Osservazioni e previsioni meteorologiche di più di 4000 aeroporti (messaggi METAR e TAF).

Le stazioni disponibili sono rappresentate dai dischi gialli e rossi sulla carta.

Puntare il mouse per vedere il nome della stazione.

Clicca sopra per visualizzare le osservazioni e previsioni meteorologiche.

Per cambiare la mappa : fare clic sui pulsanti verdi con una croce nera per ingrandire, il pulsante verde con un trattino per diminuire, o sulla freccia verde per le mappe adiacenti.


METAR-TAF: